createdAt,value
2022-10-02T00:01:43.765Z,5.43
2022-10-02T00:04:42.372Z,4.32
2022-10-02T00:07:13.719Z,5.57
2022-10-02T00:09:50.182Z,8.63
2022-10-02T00:12:24.426Z,4.40
2022-10-02T00:15:01.782Z,5.28
2022-10-02T00:17:38.928Z,3.70
2022-10-02T00:20:16.126Z,4.15
2022-10-02T00:22:54.264Z,3.25
2022-10-02T00:25:44.650Z,5.20
2022-10-02T00:28:33.295Z,9.48
2022-10-02T00:31:16.728Z,5.22
2022-10-02T00:34:10.803Z,5.03
2022-10-02T00:36:56.092Z,3.13
2022-10-02T00:39:53.890Z,5.15
2022-10-02T00:42:41.882Z,7.13
2022-10-02T00:45:26.561Z,5.68
2022-10-02T00:48:21.086Z,6.60
2022-10-02T00:51:16.136Z,4.97
2022-10-02T00:53:46.186Z,6.50
2022-10-02T00:56:29.240Z,10.98
2022-10-02T00:59:24.738Z,11.82
2022-10-02T01:02:20.938Z,7.38
2022-10-02T01:04:51.340Z,5.53
2022-10-02T01:07:21.849Z,5.47
2022-10-02T01:09:52.023Z,4.95
2022-10-02T01:12:23.268Z,9.65
2022-10-02T01:14:53.495Z,8.80
2022-10-02T01:17:28.621Z,8.80
2022-10-02T01:20:01.339Z,9.13
2022-10-02T01:22:40.449Z,5.43
2022-10-02T01:25:10.770Z,3.38
2022-10-02T01:27:41.514Z,2.72
2022-10-02T01:30:15.736Z,4.60
2022-10-02T01:32:58.046Z,2.30
2022-10-02T01:35:37.261Z,2.78
2022-10-02T01:38:17.791Z,4.85
2022-10-02T01:40:47.992Z,3.05
2022-10-02T01:43:25.822Z,3.97
2022-10-02T01:46:04.783Z,1.80
2022-10-02T01:48:43.814Z,2.28
2022-10-02T01:51:37.614Z,3.28
2022-10-02T01:54:18.125Z,2.25
2022-10-02T01:57:08.570Z,1.92
2022-10-02T01:59:48.351Z,2.78
2022-10-02T02:02:28.132Z,2.42
2022-10-02T02:05:19.918Z,1.02
2022-10-02T02:08:06.194Z,2.28
2022-10-02T02:10:39.106Z,1.77
2022-10-02T02:13:16.270Z,3.60
2022-10-02T02:16:02.076Z,1.02
2022-10-02T02:18:48.034Z,2.78
2022-10-02T02:21:25.362Z,1.83
2022-10-02T02:23:58.362Z,0.93
2022-10-02T02:26:30.454Z,3.22
2022-10-02T02:29:04.554Z,1.60
2022-10-02T02:32:01.116Z,1.50
2022-10-02T02:34:35.354Z,1.40
2022-10-02T02:37:14.946Z,1.63
2022-10-02T02:39:51.798Z,2.05
2022-10-02T02:42:26.368Z,2.80
2022-10-02T02:45:22.568Z,0.82
2022-10-02T02:47:54.953Z,2.30
2022-10-02T02:50:40.779Z,3.10
2022-10-02T02:53:35.278Z,2.97
2022-10-02T02:56:09.880Z,1.85
2022-10-02T02:58:53.394Z,1.40
2022-10-02T03:01:23.619Z,2.53
2022-10-02T03:03:54.143Z,3.97
2022-10-02T03:08:57.974Z,6.15
2022-10-02T03:14:16.211Z,2.85
2022-10-02T03:17:05.732Z,5.63
2022-10-02T03:19:52.217Z,2.42
2022-10-02T03:22:46.199Z,2.53
2022-10-02T03:25:30.937Z,1.88
2022-10-02T03:28:31.803Z,2.10
2022-10-02T03:31:09.506Z,2.75
2022-10-02T03:33:42.850Z,2.78
2022-10-02T03:36:15.483Z,1.95
2022-10-02T03:38:56.927Z,1.35
2022-10-02T03:41:39.799Z,2.90
2022-10-02T03:44:09.984Z,5.47
2022-10-02T03:46:40.745Z,3.97
2022-10-02T03:49:13.809Z,2.83
2022-10-02T03:51:44.240Z,3.05
2022-10-02T03:54:18.947Z,5.18
2022-10-02T03:56:58.545Z,3.13
2022-10-02T04:00:05.928Z,1.30
2022-10-02T04:02:48.882Z,3.35
2022-10-02T04:05:40.295Z,1.60
2022-10-02T04:08:36.127Z,2.53
2022-10-02T04:11:15.771Z,2.97
2022-10-02T04:14:17.722Z,3.72
2022-10-02T04:16:56.439Z,1.73
2022-10-02T04:20:01.531Z,2.55
2022-10-02T04:22:49.373Z,1.70
2022-10-02T04:25:25.081Z,1.25
2022-10-02T04:28:05.541Z,3.20
2022-10-02T04:30:36.169Z,4.03
2022-10-02T04:33:16.015Z,2.25
2022-10-02T04:35:55.635Z,0.80
2022-10-02T04:38:41.024Z,2.88
2022-10-02T04:41:26.426Z,1.27
2022-10-02T04:44:31.858Z,3.22
2022-10-02T04:47:23.222Z,2.08
2022-10-02T04:52:29.342Z,3.00
2022-10-02T04:55:08.729Z,1.60
2022-10-02T04:57:58.043Z,1.83
2022-10-02T05:00:37.821Z,2.30
2022-10-02T05:03:39.819Z,1.58
2022-10-02T05:06:29.241Z,1.80
2022-10-02T05:09:30.194Z,1.58
2022-10-02T05:12:00.422Z,3.17
2022-10-02T05:14:49.119Z,3.10
2022-10-02T05:17:53.880Z,3.13
2022-10-02T05:20:27.326Z,3.85
2022-10-02T05:23:16.148Z,1.83
2022-10-02T05:25:55.075Z,1.92
2022-10-02T05:28:42.526Z,6.25
2022-10-02T05:31:31.867Z,4.18
2022-10-02T05:34:10.562Z,1.30
2022-10-02T05:37:11.647Z,0.90
2022-10-02T05:40:09.422Z,3.80
2022-10-02T05:43:26.178Z,2.08
2022-10-02T05:46:03.323Z,2.42
2022-10-02T05:48:54.315Z,1.58
2022-10-02T05:51:37.872Z,2.65
2022-10-02T05:54:23.568Z,3.20
2022-10-02T05:57:04.552Z,2.30
2022-10-02T06:00:13.250Z,2.17
2022-10-02T06:03:01.965Z,1.35
2022-10-02T06:05:57.482Z,0.52
2022-10-02T06:08:40.669Z,4.15
2022-10-02T06:11:23.795Z,0.63
2022-10-02T06:14:08.295Z,1.33
2022-10-02T06:17:06.356Z,3.47
2022-10-02T06:19:42.315Z,2.55
2022-10-02T06:22:20.555Z,2.47
2022-10-02T06:25:07.137Z,1.85
2022-10-02T06:28:02.865Z,1.35
2022-10-02T06:30:38.810Z,1.63
2022-10-02T06:33:19.923Z,0.73
2022-10-02T06:36:23.946Z,2.92
2022-10-02T06:39:17.469Z,0.63
2022-10-02T06:41:48.498Z,2.20
2022-10-02T06:44:30.966Z,2.58
2022-10-02T06:47:23.319Z,3.05
2022-10-02T06:50:23.852Z,2.60
2022-10-02T06:53:08.205Z,1.13
2022-10-02T06:55:47.791Z,0.88
2022-10-02T06:58:41.655Z,1.85
2022-10-02T07:01:33.571Z,1.70
2022-10-02T07:04:33.391Z,2.88
2022-10-02T07:07:09.562Z,1.05
2022-10-02T07:10:07.011Z,1.05
2022-10-02T07:12:49.245Z,1.20
2022-10-02T07:15:19.492Z,2.30
2022-10-02T07:18:10.542Z,0.88
2022-10-02T07:21:20.079Z,3.10
2022-10-02T07:24:02.237Z,2.47
2022-10-02T07:26:47.347Z,5.25
2022-10-02T07:29:35.789Z,1.23
2022-10-02T07:32:49.626Z,2.72
2022-10-02T07:35:38.379Z,1.58
2022-10-02T07:38:49.827Z,2.00
2022-10-02T07:41:53.882Z,2.28
2022-10-02T07:44:41.823Z,2.97
2022-10-02T07:47:32.601Z,3.13
2022-10-02T07:50:13.412Z,2.08
2022-10-02T07:52:51.459Z,4.82
2022-10-02T07:55:23.934Z,2.13
2022-10-02T07:58:02.287Z,6.95
2022-10-02T08:00:37.613Z,1.30
2022-10-02T08:03:28.724Z,1.83
2022-10-02T08:06:01.658Z,2.22
2022-10-02T08:09:24.362Z,1.15
2022-10-02T08:12:04.039Z,3.00
2022-10-02T08:14:42.737Z,1.98
2022-10-02T08:17:33.067Z,2.22
2022-10-02T08:20:49.591Z,3.60
2022-10-02T08:23:40.366Z,2.88
2022-10-02T08:26:13.870Z,2.50
2022-10-02T08:29:21.698Z,2.03
2022-10-02T08:31:55.081Z,1.08
2022-10-02T08:34:27.226Z,1.75
2022-10-02T08:37:15.876Z,3.22
2022-10-02T08:39:48.802Z,3.60
2022-10-02T08:42:24.607Z,1.10
2022-10-02T08:45:27.304Z,3.03
2022-10-02T08:48:31.694Z,2.38
2022-10-02T08:51:13.301Z,2.13
2022-10-02T08:54:21.020Z,2.20
2022-10-02T08:56:51.104Z,3.83
2022-10-02T08:59:48.597Z,3.60
2022-10-02T09:02:52.258Z,4.32
2022-10-02T09:05:57.154Z,2.60
2022-10-02T09:08:30.423Z,0.85
2022-10-02T09:11:20.498Z,2.50
2022-10-02T09:14:11.383Z,3.38
2022-10-02T09:17:07.812Z,2.28
2022-10-02T09:19:57.723Z,1.42
2022-10-02T09:22:45.596Z,1.23
2022-10-02T09:25:45.995Z,3.25
2022-10-02T09:28:51.998Z,2.10
2022-10-02T09:31:34.355Z,3.60
2022-10-02T09:34:23.218Z,4.25
2022-10-02T09:37:17.331Z,1.88
2022-10-02T09:40:05.842Z,2.80
2022-10-02T09:42:53.202Z,3.50
2022-10-02T09:45:41.888Z,2.80
2022-10-02T09:48:31.454Z,3.80
2022-10-02T09:51:18.107Z,1.10
2022-10-02T09:54:24.888Z,1.83
2022-10-02T09:57:32.898Z,4.30
2022-10-02T10:00:29.890Z,3.67
2022-10-02T10:03:20.158Z,3.08
2022-10-02T10:06:27.164Z,1.17
2022-10-02T10:08:57.622Z,2.97
2022-10-02T10:12:04.423Z,0.60
2022-10-02T10:15:09.181Z,1.33
2022-10-02T10:20:46.056Z,3.10
2022-10-02T10:23:28.266Z,2.05
2022-10-02T10:26:16.275Z,1.55
2022-10-02T10:28:58.240Z,0.82
2022-10-02T10:32:06.422Z,1.45
2022-10-02T10:34:47.244Z,0.60
2022-10-02T10:37:53.955Z,3.22
2022-10-02T10:40:51.825Z,1.90
2022-10-02T10:43:43.830Z,1.90
2022-10-02T10:46:42.516Z,1.58
2022-10-02T10:49:43.082Z,2.72
2022-10-02T10:52:34.556Z,1.80
2022-10-02T10:55:13.565Z,2.65
2022-10-02T10:58:02.114Z,1.88
2022-10-02T11:01:08.111Z,2.03
2022-10-02T11:04:19.310Z,0.50
2022-10-02T11:07:14.947Z,2.45
2022-10-02T11:10:06.351Z,3.30
2022-10-02T11:13:04.217Z,2.90
2022-10-02T11:19:01.240Z,1.95
2022-10-02T11:22:08.414Z,0.70
2022-10-02T11:25:03.087Z,1.95
2022-10-02T11:27:54.259Z,1.55
2022-10-02T11:30:34.163Z,2.75
2022-10-02T11:33:31.240Z,2.08
2022-10-02T11:36:20.242Z,3.20
2022-10-02T11:39:09.271Z,2.38
2022-10-02T11:42:16.631Z,1.85
2022-10-02T11:45:35.559Z,0.98
2022-10-02T11:48:19.869Z,1.33
2022-10-02T11:54:17.595Z,0.63
2022-10-02T11:57:11.950Z,1.55
2022-10-02T12:00:05.402Z,2.17
2022-10-02T12:03:13.192Z,0.85
2022-10-02T12:06:16.378Z,1.08
2022-10-02T12:09:24.178Z,0.45
2022-10-02T12:12:27.562Z,0.68
2022-10-02T12:15:15.473Z,0.68
2022-10-02T12:17:54.515Z,2.03
2022-10-02T12:20:56.585Z,0.43
2022-10-02T12:24:14.268Z,1.67
2022-10-02T12:27:23.304Z,3.10
2022-10-02T12:30:14.734Z,0.55
2022-10-02T12:33:03.922Z,1.00
2022-10-02T12:36:12.367Z,0.80
2022-10-02T12:39:01.058Z,2.80
2022-10-02T12:41:46.560Z,0.50
2022-10-02T12:44:33.264Z,1.20
2022-10-02T12:47:24.795Z,2.30
2022-10-02T12:50:39.894Z,1.70
2022-10-02T12:53:31.058Z,0.85
2022-10-02T12:56:27.492Z,3.22
2022-10-02T12:59:00.383Z,1.05
2022-10-02T13:01:51.185Z,1.17
2022-10-02T13:04:40.244Z,1.55
2022-10-02T13:07:31.341Z,1.63
2022-10-02T13:10:23.689Z,0.90
2022-10-02T13:13:06.116Z,2.65
2022-10-02T13:16:23.362Z,1.17
2022-10-02T13:19:14.717Z,1.40
2022-10-02T13:22:11.195Z,1.20
2022-10-02T13:25:02.789Z,1.85
2022-10-02T13:27:54.613Z,1.42
2022-10-02T13:30:25.483Z,2.58
2022-10-02T13:33:17.189Z,4.65
2022-10-02T13:36:05.407Z,1.65
2022-10-02T13:39:10.475Z,3.75
2022-10-02T13:42:09.004Z,1.85
2022-10-02T13:45:18.102Z,1.52
2022-10-02T13:47:57.516Z,1.13
2022-10-02T13:50:28.971Z,1.48
2022-10-02T13:53:01.946Z,2.05
2022-10-02T13:55:50.110Z,1.02
2022-10-02T13:58:44.032Z,0.80
2022-10-02T14:01:32.653Z,1.05
2022-10-02T14:04:24.644Z,1.58
2022-10-02T14:07:03.390Z,2.13
2022-10-02T14:10:01.283Z,1.35
2022-10-02T14:13:04.807Z,2.22
2022-10-02T14:16:03.887Z,2.80
2022-10-02T14:19:00.495Z,1.50
2022-10-02T14:21:52.637Z,1.38
2022-10-02T14:24:58.411Z,3.83
2022-10-02T14:27:53.606Z,2.65
2022-10-02T14:30:25.630Z,3.58
2022-10-02T14:33:10.746Z,3.03
2022-10-02T14:36:08.282Z,2.10
2022-10-02T14:39:05.366Z,2.20
2022-10-02T14:41:49.197Z,1.75
2022-10-02T14:44:34.535Z,1.60
2022-10-02T14:47:38.815Z,3.10
2022-10-02T14:50:20.821Z,4.57
2022-10-02T14:53:27.441Z,3.00
2022-10-02T14:56:10.346Z,3.65
2022-10-02T14:59:02.356Z,3.30
2022-10-02T15:01:39.504Z,5.30
2022-10-02T15:04:24.281Z,5.68
2022-10-02T15:07:09.311Z,4.85
2022-10-02T15:10:02.972Z,5.18
2022-10-02T15:12:45.602Z,5.22
2022-10-02T15:15:18.138Z,5.80
2022-10-02T15:18:01.466Z,6.25
2022-10-02T15:20:50.084Z,4.68
2022-10-02T15:23:45.524Z,3.60
2022-10-02T15:26:28.547Z,4.28
2022-10-02T15:29:22.469Z,5.43
2022-10-02T15:32:39.789Z,2.13
2022-10-02T15:35:26.119Z,2.50
2022-10-02T15:38:26.866Z,4.25
2022-10-02T15:41:17.965Z,3.88
2022-10-02T15:44:06.257Z,4.25
2022-10-02T15:46:55.651Z,3.05
2022-10-02T15:49:42.295Z,3.75
2022-10-02T15:52:27.327Z,3.00
2022-10-02T15:55:02.089Z,3.38
2022-10-02T15:58:01.889Z,3.17
2022-10-02T16:00:59.135Z,3.47
2022-10-02T16:03:37.842Z,3.78
2022-10-02T16:06:40.327Z,6.15
2022-10-02T16:09:44.838Z,3.03
2022-10-02T16:12:34.602Z,3.60
2022-10-02T16:17:59.062Z,4.05
2022-10-02T16:20:47.769Z,3.80
2022-10-02T16:23:52.711Z,9.57
2022-10-02T16:26:41.227Z,6.78
2022-10-02T16:29:25.523Z,6.78
2022-10-02T16:32:15.088Z,8.65
2022-10-02T16:35:26.254Z,5.72
2022-10-02T16:38:01.335Z,5.10
2022-10-02T16:40:54.177Z,4.38
2022-10-02T16:43:52.563Z,5.35
2022-10-02T16:46:41.256Z,5.78
2022-10-02T16:49:29.494Z,5.15
2022-10-02T16:52:06.324Z,2.95
2022-10-02T16:54:47.877Z,3.05
2022-10-02T16:57:31.443Z,2.85
2022-10-02T17:00:17.110Z,3.78
2022-10-02T17:03:05.629Z,3.92
2022-10-02T17:05:49.405Z,4.82
2022-10-02T17:08:48.140Z,6.75
2022-10-02T17:11:58.678Z,4.78
2022-10-02T17:15:02.051Z,4.63
2022-10-02T17:17:44.784Z,3.13
2022-10-02T17:20:18.487Z,2.88
2022-10-02T17:23:07.461Z,4.47
2022-10-02T17:25:52.122Z,3.40
2022-10-02T17:28:43.758Z,3.75
2022-10-02T17:31:19.784Z,3.33
2022-10-02T17:34:13.958Z,4.85
2022-10-02T17:36:50.935Z,4.05
2022-10-02T17:39:39.172Z,3.97
2022-10-02T17:42:33.926Z,4.22
2022-10-02T17:45:45.828Z,3.15
2022-10-02T17:48:23.170Z,4.90
2022-10-02T17:51:39.029Z,4.70
2022-10-02T17:54:46.247Z,2.60
2022-10-02T17:57:44.907Z,2.88
2022-10-02T18:00:25.074Z,3.33
2022-10-02T18:03:37.939Z,4.82
2022-10-02T18:06:54.038Z,3.45
2022-10-02T18:09:43.064Z,3.08
2022-10-02T18:12:28.023Z,2.55
2022-10-02T18:15:38.247Z,3.17
2022-10-02T18:18:36.181Z,3.03
2022-10-02T18:21:22.418Z,2.58
2022-10-02T18:24:33.038Z,2.85
2022-10-02T18:27:10.135Z,2.60
2022-10-02T18:29:52.449Z,2.15
2022-10-02T18:32:52.915Z,3.03
2022-10-02T18:35:43.915Z,2.72
2022-10-02T18:38:23.208Z,3.00
2022-10-02T18:41:29.491Z,2.47
2022-10-02T18:44:27.366Z,2.20
2022-10-02T18:47:05.612Z,2.28
2022-10-02T18:49:43.446Z,4.40
2022-10-02T18:52:36.982Z,3.83
2022-10-02T18:55:29.183Z,22.85
2022-10-02T18:58:07.259Z,7.65
2022-10-02T19:00:49.247Z,3.40
2022-10-02T19:03:51.003Z,2.95
2022-10-02T19:06:28.239Z,2.03
2022-10-02T19:09:10.200Z,1.70
2022-10-02T19:11:59.905Z,1.75
2022-10-02T19:14:47.012Z,1.67
2022-10-02T19:17:25.194Z,2.90
2022-10-02T19:19:56.916Z,2.13
2022-10-02T19:22:39.484Z,2.63
2022-10-02T19:25:21.544Z,1.80
2022-10-02T19:27:58.360Z,2.03
2022-10-02T19:30:31.765Z,3.47
2022-10-02T19:33:09.978Z,3.83
2022-10-02T19:35:46.207Z,2.25
2022-10-02T19:38:29.689Z,2.00
2022-10-02T19:43:35.570Z,2.97
2022-10-02T19:46:09.541Z,1.70
2022-10-02T19:48:41.922Z,1.65
2022-10-02T19:51:22.686Z,2.42
2022-10-02T19:54:02.447Z,2.67
2022-10-02T19:56:42.295Z,1.58
2022-10-02T19:59:22.516Z,2.38
2022-10-02T20:01:55.797Z,1.17
2022-10-02T20:04:30.054Z,1.13
2022-10-02T20:07:01.682Z,1.38
2022-10-02T20:09:57.394Z,2.55
2022-10-02T20:12:34.839Z,1.35
2022-10-02T20:15:49.285Z,2.17
2022-10-02T20:18:22.562Z,1.55
2022-10-02T20:20:57.118Z,2.25
2022-10-02T20:23:31.157Z,2.05
2022-10-02T20:26:09.989Z,1.50
2022-10-02T20:28:58.562Z,1.67
2022-10-02T20:31:48.260Z,3.40
2022-10-02T20:34:48.182Z,2.60
2022-10-02T20:37:26.281Z,2.13
2022-10-02T20:40:09.805Z,1.48
2022-10-02T20:42:45.927Z,1.50
2022-10-02T20:45:17.461Z,3.85
2022-10-02T20:47:59.482Z,2.03
2022-10-02T20:50:56.221Z,3.45
2022-10-02T20:53:45.554Z,1.60
2022-10-02T20:56:39.785Z,1.98
2022-10-02T20:59:35.378Z,3.17
2022-10-02T21:02:23.648Z,3.03
2022-10-02T21:05:22.157Z,2.83
2022-10-02T21:08:05.283Z,1.50
2022-10-02T21:10:41.790Z,3.42
2022-10-02T21:13:48.915Z,1.80
2022-10-02T21:16:50.960Z,2.70
2022-10-02T21:19:39.249Z,2.05
2022-10-02T21:22:28.319Z,3.00
2022-10-02T21:25:19.350Z,3.88
2022-10-02T21:28:08.431Z,2.00
2022-10-02T21:31:01.137Z,4.13
2022-10-02T21:33:41.391Z,2.47
2022-10-02T21:36:22.784Z,4.40
2022-10-02T21:39:35.086Z,2.97
2022-10-02T21:42:32.886Z,3.70
2022-10-02T21:45:25.139Z,3.63
2022-10-02T21:48:49.269Z,5.90
2022-10-02T21:51:41.690Z,5.25
2022-10-02T21:54:45.614Z,6.57
2022-10-02T21:57:34.259Z,9.88
2022-10-02T22:00:08.853Z,12.52
2022-10-02T22:02:40.162Z,6.15
2022-10-02T22:05:19.082Z,8.10
2022-10-02T22:08:27.851Z,5.43
2022-10-02T22:11:27.550Z,6.65
2022-10-02T22:14:08.056Z,3.38
2022-10-02T22:16:49.873Z,5.15
2022-10-02T22:19:45.047Z,4.07
2022-10-02T22:22:37.881Z,8.48
2022-10-02T22:25:52.397Z,6.50
2022-10-02T22:28:45.377Z,6.85
2022-10-02T22:31:42.923Z,7.15
2022-10-02T22:34:21.710Z,5.07
2022-10-02T22:37:09.934Z,6.47
2022-10-02T22:39:47.626Z,4.97
2022-10-02T22:42:47.944Z,4.07
2022-10-02T22:45:24.806Z,6.90
2022-10-02T22:48:10.242Z,8.60
2022-10-02T22:50:55.086Z,8.38
2022-10-02T22:53:45.900Z,5.50
2022-10-02T22:56:44.671Z,5.63
2022-10-02T22:59:39.230Z,4.55
2022-10-02T23:02:27.458Z,5.25
2022-10-02T23:05:02.153Z,7.40
2022-10-02T23:07:50.808Z,5.45
2022-10-02T23:10:47.884Z,6.30
2022-10-02T23:13:23.007Z,5.97
2022-10-02T23:16:02.393Z,4.35
2022-10-02T23:18:44.540Z,7.22
2022-10-02T23:21:15.089Z,6.40
2022-10-02T23:23:45.855Z,4.22
2022-10-02T23:26:41.207Z,3.78
2022-10-02T23:29:29.694Z,7.03
2022-10-02T23:32:22.936Z,8.52
2022-10-02T23:35:14.278Z,6.30
2022-10-02T23:37:54.019Z,5.53
2022-10-02T23:40:50.992Z,4.35
2022-10-02T23:44:02.822Z,7.30
2022-10-02T23:49:10.441Z,4.45
2022-10-02T23:52:01.646Z,10.57
2022-10-02T23:54:46.817Z,9.00
2022-10-02T23:57:19.598Z,10.35
